Abis Bremen — PCJO — position and weather

sailwx.info

Track history (hours):
 
Tides and Currents Weather Stations Pressure Air Temp Water Temp Dewpoint Dewpoint Depression Visibility Wind Speed Wind Dir Waves Ship Positions

Abis Bremen

Last reported at 2018-Feb-20 15:00 UTC. Time now 2018-Feb-20 15:31 UTC.
Position N 53°28' E 009°58'.

Length 90 m; draft 5.2 m.

Type: Ship. MMSI: 246778880.

Date/timePositionNaut miles runAvg speedWind from/ knotsBaromVisibWave heightAir tempDewpointWater temp
2018-Feb-20 15:00N 53°28' E 009°58'0 0.0
2018-Feb-20 14:30N 53°28' E 009°58'0 0.0
2018-Feb-20 14:00N 53°28' E 009°58'0 0.0
2018-Feb-20 13:30N 53°28' E 009°58'0 0.0
2018-Feb-20 13:00N 53°28' E 009°58'0 0.0
2018-Feb-20 12:30N 53°28' E 009°58'0 0.0
2018-Feb-20 12:00N 53°28' E 009°58'0 0.0
2018-Feb-20 11:30N 53°28' E 009°58'0 0.0
2018-Feb-20 11:00N 53°28' E 009°58'0 0.0
2018-Feb-20 10:30N 53°28' E 009°58'0 0.0
2018-Feb-20 10:00N 53°28' E 009°58'0 0.0
2018-Feb-20 09:30N 53°28' E 009°58'0 0.0
2018-Feb-20 09:00N 53°28' E 009°58'0 0.0
2018-Feb-20 08:30N 53°28' E 009°58'0 0.0
2018-Feb-20 08:00N 53°28' E 009°58'0 0.0
2018-Feb-20 07:30N 53°28' E 009°58'0 0.0
2018-Feb-20 07:00N 53°28' E 009°58'0 0.0
2018-Feb-20 06:30N 53°28' E 009°58'0 0.0
2018-Feb-20 06:00N 53°28' E 009°58'0 0.0
2018-Feb-20 05:30N 53°28' E 009°58'0 0.0
2018-Feb-20 05:00N 53°28' E 009°58'0 0.0
2018-Feb-20 04:30N 53°28' E 009°58'0 0.7
2018-Feb-20 04:00N 53°29' E 009°58'2 4.3
2018-Feb-20 03:31N 53°31' E 009°56'4 7.0
2018-Feb-20 03:01N 53°33' E 009°52'612.7
2018-Feb-20 02:30N 53°34' E 009°41'713.2
2018-Feb-20 02:00N 53°38' E 009°32'713.2
2018-Feb-20 01:30N 53°44' E 009°27'713.3
2018-Feb-20 01:00N 53°49' E 009°21'713.3
2018-Feb-20 00:31N 53°53' E 009°12'510.7
2018-Feb-20 00:00N 53°52' E 009°03'611.2
2018-Feb-19 23:30N 53°50' E 008°53'510.3
2018-Feb-19 23:00N 53°51' E 008°45'5 9.9
2018-Feb-19 22:30N 53°55' E 008°40'510.1
2018-Feb-19 21:59N 53°58' E 008°32'611.3
2018-Feb-19 21:29N 53°59' E 008°23'110 9.9
2018-Feb-19 10:25N 53°33' E 005°22'5412.3
2018-Feb-19 06:05N 52°55' E 004°19'113.2
2018-Feb-19 06:00N 52°54' E 004°18'1112.8
2018-Feb-19 05:08N 52°45' E 004°08'212.5
2018-Feb-19 04:57N 52°43' E 004°05'612.6
2018-Feb-19 04:27N 52°39' E 003°58'612.6
2018-Feb-19 04:00N 52°35' E 003°51'712.4
2018-Feb-19 03:28N 52°30' E 003°43'712.2
2018-Feb-19 02:53N 52°25' E 003°35'511.7
2018-Feb-19 02:29N 52°22' E 003°29'612.1
2018-Feb-19 01:57N 52°18' E 003°21'510.9
2018-Feb-19 01:29N 52°14' E 003°15'31 9.8
2018-Feb-18 22:17N 51°58' E 002°31'3 9.1
2018-Feb-18 21:59N 51°57' E 002°27'13 9.4
2018-Feb-18 20:38N 51°52' E 002°08'1 9.8
2018-Feb-18 20:30N 51°52' E 002°06'510.0
2018-Feb-18 20:01N 51°50' E 001°59'510.4
2018-Feb-18 19:31N 51°48' E 001°51'510.8
2018-Feb-18 19:00N 51°49' E 001°42'611.2
2018-Feb-18 18:30N 51°49' E 001°33'612.1
2018-Feb-18 18:00N 51°45' E 001°26'612.3
2018-Feb-18 17:30N 51°41' E 001°18'713.0
2018-Feb-18 17:00N 51°36' E 001°12'713.2
2018-Feb-18 16:30N 51°32' E 001°03'613.0
2018-Feb-18 16:00N 51°29' E 000°54'611.5
2018-Feb-18 15:30N 51°27' E 000°45'3 6.7
2018-Feb-18 15:01N 51°24' E 000°44'2 3.1
2018-Feb-18 14:23N 51°22' E 000°46'0 0.0
2018-Feb-18 13:59N 51°22' E 000°46'0 0.0
2018-Feb-18 13:29N 51°22' E 000°46'0 0.0
2018-Feb-18 12:50N 51°22' E 000°46'0 0.0
2018-Feb-18 12:29N 51°22' E 000°46'0 0.0
2018-Feb-18 11:56N 51°22' E 000°46'0 0.0
2018-Feb-18 04:17N 51°22' E 000°46'0 0.0
2018-Feb-18 03:53N 51°22' E 000°46'0 0.0
2018-Feb-18 03:11N 51°22' E 000°46'0 0.0
2018-Feb-18 02:56N 51°22' E 000°46'0 0.0
2018-Feb-18 02:26N 51°22' E 000°46'0 0.0
2018-Feb-18 01:53N 51°22' E 000°46'0 0.0
2018-Feb-18 01:29N 51°22' E 000°46'0 0.0
2018-Feb-18 00:59N 51°22' E 000°46'0 0.0
2018-Feb-18 00:20N 51°22' E 000°46'0 0.0
2018-Feb-17 17:08N 51°22' E 000°46'0 0.0
2018-Feb-17 16:59N 51°22' E 000°46'0 0.0
2018-Feb-17 16:02N 51°22' E 000°46'0 0.0
2018-Feb-17 15:59N 51°22' E 000°46'0 0.0
2018-Feb-17 14:11N 51°22' E 000°46'0 0.0
2018-Feb-17 13:49N 51°22' E 000°46'1 1.7
2018-Feb-17 13:26N 51°23' E 000°46'2 5.0
2018-Feb-17 12:59N 51°24' E 000°43'2 4.0
2018-Feb-17 12:30N 51°26' E 000°44'4 8.2
2018-Feb-17 12:00N 51°28' E 000°50'5 9.7
2018-Feb-17 11:30N 51°30' E 000°57'5 9.3
2018-Feb-17 11:00N 51°32' E 001°04'713.7
2018-Feb-17 10:30N 51°36' E 001°12'713.8
2018-Feb-17 10:00N 51°41' E 001°20'713.9
2018-Feb-17 09:30N 51°46' E 001°28'713.9
2018-Feb-17 09:00N 51°50' E 001°37'713.3
2018-Feb-17 08:30N 51°55' E 001°45'612.6
2018-Feb-17 08:00N 51°59' E 001°53'612.6
2018-Feb-17 07:30N 52°02' E 002°02'3410.7
2018-Feb-17 04:18N 52°18' E 002°51'410.0
2018-Feb-17 03:55N 52°21' E 002°56'5 9.7
2018-Feb-17 03:25N 52°23' E 003°03'410.0
2018-Feb-17 03:00N 52°26' E 003°08'510.1
2018-Feb-17 02:28N 52°29' E 003°15'610.4
2018-Feb-17 01:55N 52°33' E 003°22'510.8
2018-Feb-17 01:29N 52°36' E 003°27'811.5
2018-Feb-17 00:46N 52°43' E 003°36'311.9
2018-Feb-17 00:30N 52°45' E 003°39'612.1
2018-Feb-16 23:59N 52°50' E 003°46'612.2
2018-Feb-16 23:30N 52°54' E 003°52'612.2
2018-Feb-16 23:00N 52°59' E 003°60'612.1
2018-Feb-16 22:30N 53°03' E 004°07'611.8
2018-Feb-16 22:00N 53°06' E 004°14'611.6
2018-Feb-16 21:30N 53°10' E 004°22'136 9.0
2018-Feb-16 06:22N 54°01' E 007°54'3 9.0
2018-Feb-16 06:00N 54°01' E 007°59'5 9.5
2018-Feb-16 05:30N 54°01' E 008°07'5 9.3
2018-Feb-16 05:00N 54°00' E 008°15'510.1
2018-Feb-16 04:30N 53°59' E 008°24'713.1
2018-Feb-16 04:00N 53°58' E 008°35'613.1
2018-Feb-16 03:30N 53°53' E 008°42'611.3
2018-Feb-16 03:00N 53°50' E 008°51'511.0
2018-Feb-16 02:30N 53°51' E 008°60'5 9.6
2018-Feb-16 02:00N 53°53' E 009°07'4 7.5
2018-Feb-16 01:30N 53°53' E 009°14'4 8.4
2018-Feb-16 01:00N 53°51' E 009°20'4 8.3
2018-Feb-16 00:30N 53°47' E 009°23'4 7.4
2018-Feb-16 00:00N 53°44' E 009°27'4 7.5
2018-Feb-15 23:30N 53°41' E 009°30'4 7.5
2018-Feb-15 23:00N 53°37' E 009°33'4 8.0
2018-Feb-15 22:31N 53°35' E 009°38'5 9.9
2018-Feb-15 22:00N 53°34' E 009°46'510.2
2018-Feb-15 21:30N 53°33' E 009°54'4 7.5
2018-Feb-15 21:00N 53°29' E 009°57'1 1.8
2018-Feb-15 20:29N 53°28' E 009°58'0 0.0
2018-Feb-15 19:59N 53°28' E 009°58'0 0.0
2018-Feb-15 19:29N 53°28' E 009°58'0 0.0
2018-Feb-15 18:59N 53°28' E 009°58'0 0.0
2018-Feb-15 18:29N 53°28' E 009°58'0 0.0
2018-Feb-15 17:59N 53°28' E 009°58'0 0.0
2018-Feb-15 17:29N 53°28' E 009°58'0 0.0
2018-Feb-15 16:59N 53°28' E 009°58'0 0.0
2018-Feb-15 16:29N 53°28' E 009°58'0 0.0
2018-Feb-15 15:59N 53°28' E 009°58'0 0.0
2018-Feb-15 15:29N 53°28' E 009°58'0 0.0
2018-Feb-15 14:59N 53°28' E 009°58'0 0.0
2018-Feb-15 14:29N 53°28' E 009°58'0 0.0
2018-Feb-15 13:59N 53°28' E 009°58'0 0.0
2018-Feb-15 13:29N 53°28' E 009°58'0 0.0
2018-Feb-15 12:59N 53°28' E 009°58'0 0.0
2018-Feb-15 12:29N 53°28' E 009°58'0 0.1
2018-Feb-15 11:59N 53°28' E 009°58'0 0.0
2018-Feb-15 11:26N 53°28' E 009°58'0 0.0
2018-Feb-15 10:59N 53°28' E 009°58'0 0.0
2018-Feb-15 10:29N 53°28' E 009°58'0 0.0
2018-Feb-15 09:59N 53°28' E 009°58'0 0.0
2018-Feb-15 09:29N 53°28' E 009°58'0 0.0
2018-Feb-15 08:59N 53°28' E 009°58'0 0.0
2018-Feb-15 08:29N 53°28' E 009°58'0 0.0
2018-Feb-15 07:59N 53°28' E 009°58'0 0.0
2018-Feb-15 07:29N 53°28' E 009°58'0 0.0
2018-Feb-15 06:59N 53°28' E 009°58'0 0.0
2018-Feb-15 06:29N 53°28' E 009°58'0 0.0
2018-Feb-15 05:59N 53°28' E 009°58'0 0.0
2018-Feb-15 05:29N 53°28' E 009°58'0 0.0
2018-Feb-15 04:59N 53°28' E 009°58'0 0.0
2018-Feb-15 04:29N 53°28' E 009°58'0 0.0
2018-Feb-15 03:59N 53°28' E 009°58'0 0.0
2018-Feb-15 03:29N 53°28' E 009°58'0 0.0
2018-Feb-15 02:59N 53°28' E 009°58'0 0.5
2018-Feb-15 02:31N 53°29' E 009°58'3 5.2
2018-Feb-15 02:01N 53°31' E 009°56'4 7.8
2018-Feb-15 01:30N 53°33' E 009°51'612.7
2018-Feb-15 01:01N 53°34' E 009°40'612.6
2018-Feb-15 00:31N 53°38' E 009°32'612.9
2018-Feb-15 00:00N 53°44' E 009°27'611.9
2018-Feb-14 23:30N 53°49' E 009°22'510.2
2018-Feb-14 23:00N 53°52' E 009°15'510.6
2018-Feb-14 22:30N 53°53' E 009°07'5 9.7
2018-Feb-14 22:00N 53°51' E 008°59'510.0
2018-Feb-14 21:30N 53°50' E 008°50'5 9.9
2018-Feb-14 21:01N 53°52' E 008°43'5 9.5
2018-Feb-14 20:30N 53°57' E 008°39'5 9.8
2018-Feb-14 20:01N 53°58' E 008°31'5 9.2
2018-Feb-14 19:29N 53°59' E 008°23'6 9.8
2018-Feb-14 18:55N 53°60' E 008°13'137 8.8
2018-Feb-14 03:21N 53°14' E 004°36'1413.1
2018-Feb-14 02:17N 53°02' E 004°24'612.1
2018-Feb-14 01:50N 52°57' E 004°20'1511.6
2018-Feb-14 00:32N 52°44' E 004°07'111.0
2018-Feb-14 00:29N 52°43' E 004°06'2810.3
2018-Feb-13 21:43N 52°24' E 003°33'2 9.6
2018-Feb-13 21:29N 52°22' E 003°30'5 9.5
2018-Feb-13 20:59N 52°19' E 003°24'5 9.3
2018-Feb-13 20:28N 52°15' E 003°19'4 9.1
2018-Feb-13 19:59N 52°12' E 003°14'5 9.1
2018-Feb-13 19:29N 52°09' E 003°08'4 9.0
2018-Feb-13 19:00N 52°07' E 003°03'5 9.0
2018-Feb-13 18:29N 52°05' E 002°56'4 9.2
2018-Feb-13 18:00N 52°03' E 002°49'27 9.8
2018-Feb-13 15:15N 51°53' E 002°08'310.9
2018-Feb-13 15:00N 51°52' E 002°04'510.8
2018-Feb-13 14:30N 51°50' E 001°57'5 9.7
2018-Feb-13 14:00N 51°49' E 001°49'4 8.4
2018-Feb-13 13:30N 51°49' E 001°42'510.6
2018-Feb-13 13:00N 51°49' E 001°34'510.8
2018-Feb-13 12:30N 51°45' E 001°27'612.3
2018-Feb-13 12:00N 51°41' E 001°20'611.9
2018-Feb-13 11:30N 51°37' E 001°13'611.0
2018-Feb-13 11:00N 51°33' E 001°06'510.3
2018-Feb-13 10:30N 51°31' E 000°59'510.0
2018-Feb-13 10:00N 51°29' E 000°52'5 9.6
2018-Feb-13 09:30N 51°27' E 000°45'3 6.0
2018-Feb-13 09:00N 51°24' E 000°44'2 0.1
2018-Feb-12 17:10N 51°23' E 000°46'0 0.0
2018-Feb-12 16:52N 51°23' E 000°46'0 0.0
2018-Feb-12 10:02N 51°23' E 000°46'0 0.2
2018-Feb-12 10:00N 51°23' E 000°46'2 4.7
2018-Feb-12 09:31N 51°25' E 000°43'2 4.7
2018-Feb-12 09:00N 51°27' E 000°45'5 9.7
2018-Feb-12 08:30N 51°29' E 000°52'4 8.9
2018-Feb-12 08:00N 51°31' E 000°59'1 1.1
2018-Feb-12 07:26N 51°31' E 000°59'0 0.0
2018-Feb-12 06:59N 51°31' E 000°59'0 0.0
2018-Feb-12 06:29N 51°31' E 000°59'0 0.0
2018-Feb-12 05:59N 51°31' E 000°59'0 0.1
2018-Feb-12 05:26N 51°31' E 000°60'0 0.1
2018-Feb-12 04:59N 51°31' E 000°60'0 0.0
2018-Feb-12 04:23N 51°31' E 000°60'0 0.0
2018-Feb-12 03:56N 51°31' E 000°60'0 0.0
2018-Feb-12 03:23N 51°31' E 000°60'0 0.0
2018-Feb-12 02:59N 51°31' E 000°60'0 0.0
2018-Feb-12 02:29N 51°31' E 000°60'0 0.0
2018-Feb-12 01:59N 51°31' E 000°60'0 0.0
2018-Feb-12 01:29N 51°31' E 000°60'0 0.0
2018-Feb-12 00:59N 51°31' E 000°60'0 0.0
2018-Feb-12 00:29N 51°31' E 000°60'0 0.0
2018-Feb-11 23:59N 51°31' E 000°60'0 0.0
2018-Feb-11 23:26N 51°31' E 000°60'0 0.0
2018-Feb-11 22:53N 51°31' E 000°60'0 0.0
2018-Feb-11 22:26N 51°31' E 000°60'0 0.0
2018-Feb-11 21:56N 51°31' E 000°60'0 0.0
2018-Feb-11 21:29N 51°31' E 000°60'0 0.0
2018-Feb-11 20:56N 51°31' E 000°60'0 0.1
2018-Feb-11 20:20N 51°31' E 000°60'0 0.1
2018-Feb-11 19:56N 51°31' E 000°59'0 0.0
2018-Feb-11 19:29N 51°31' E 000°59'0 0.0
2018-Feb-11 18:59N 51°31' E 000°59'0 0.0
2018-Feb-11 18:29N 51°31' E 000°59'0 0.1
2018-Feb-11 17:53N 51°31' E 000°60'0 0.0
2018-Feb-11 17:29N 51°31' E 000°60'0 0.1
2018-Feb-11 16:56N 51°31' E 000°60'0 0.1
2018-Feb-11 16:26N 51°31' E 000°60'0 0.1
2018-Feb-11 15:59N 51°31' E 000°60'0 0.0
2018-Feb-11 15:29N 51°31' E 000°60'0 0.0
2018-Feb-11 14:59N 51°31' E 000°60'0 0.0
2018-Feb-11 14:29N 51°31' E 000°60'0 0.0
2018-Feb-11 13:59N 51°31' E 000°60'0 0.0
2018-Feb-11 13:29N 51°31' E 000°60'0 0.0
2018-Feb-11 12:59N 51°31' E 000°60'0 0.0
2018-Feb-11 12:29N 51°31' E 000°60'0 0.0
2018-Feb-11 11:53N 51°31' E 000°60'0 0.0
2018-Feb-11 11:29N 51°31' E 000°60'0 0.0
2018-Feb-11 10:59N 51°31' E 000°60'0 0.0
2018-Feb-11 10:26N 51°31' E 000°60'0 0.0
2018-Feb-11 09:56N 51°31' E 000°60'0 0.0
2018-Feb-11 09:29N 51°31' E 000°60'0 0.0
2018-Feb-11 08:59N 51°31' E 000°60'0 0.1
2018-Feb-11 08:29N 51°31' E 000°60'0 0.1
2018-Feb-11 07:56N 51°31' E 000°59'0 0.0
2018-Feb-11 07:29N 51°31' E 000°59'0 0.0
2018-Feb-11 06:59N 51°31' E 000°59'0 0.0
2018-Feb-11 06:29N 51°31' E 000°59'0 0.0
2018-Feb-11 05:56N 51°31' E 000°59'0 0.2
2018-Feb-11 05:26N 51°31' E 000°60'0 0.1
2018-Feb-11 04:53N 51°31' E 000°60'0 0.0
2018-Feb-11 04:29N 51°31' E 000°60'0 0.0
2018-Feb-11 03:59N 51°31' E 000°60'0 0.0
2018-Feb-11 03:20N 51°31' E 000°60'0 0.0
2018-Feb-11 02:59N 51°31' E 000°60'0 0.1
2018-Feb-11 02:29N 51°31' E 000°60'0 0.0
2018-Feb-11 01:56N 51°31' E 000°60'0 0.0
2018-Feb-11 01:29N 51°31' E 000°60'0 0.0
2018-Feb-11 00:59N 51°31' E 000°60'0 0.0
2018-Feb-11 00:29N 51°31' E 000°60'0 0.0
2018-Feb-10 23:56N 51°31' E 000°60'0 0.0
2018-Feb-10 22:23N 51°31' E 000°60'0 0.0
2018-Feb-10 21:29N 51°31' E 000°60'0 0.0
2018-Feb-10 20:53N 51°31' E 000°60'0 0.0
2018-Feb-10 20:29N 51°31' E 000°60'0 0.0
2018-Feb-10 19:59N 51°31' E 000°60'0 0.1
2018-Feb-10 19:29N 51°31' E 000°60'0 0.0
2018-Feb-10 18:50N 51°31' E 000°60'0 0.0
2018-Feb-10 18:29N 51°31' E 000°60'0 0.0
2018-Feb-10 17:59N 51°31' E 000°60'0 0.0
2018-Feb-10 17:26N 51°31' E 000°60'0 0.0
2018-Feb-10 16:59N 51°31' E 000°60'0 0.0
2018-Feb-10 16:20N 51°31' E 000°60'0 0.0
2018-Feb-10 15:56N 51°31' E 000°60'0 0.0
2018-Feb-10 15:23N 51°31' E 000°60'  
Track history (hours):
 
Tides and Currents Weather Stations Pressure Air Temp Water Temp Dewpoint Dewpoint Depression Visibility Wind Speed Wind Dir Waves Ship Positions

Abis Bremen

Last reported at 2018-Feb-20 15:00 UTC. Time now 2018-Feb-20 15:31 UTC.
Position N 53°28' E 009°58'.

Length 90 m; draft 5.2 m.

Type: Ship. MMSI: 246778880.

Date/timePositionNaut miles runAvg speedWind from/ knotsBaromVisibWave heightAir tempDewpointWater temp
2018-Feb-20 15:00N 53°28' E 009°58'0 0.0
2018-Feb-20 14:30N 53°28' E 009°58'0 0.0
2018-Feb-20 14:00N 53°28' E 009°58'0 0.0
2018-Feb-20 13:30N 53°28' E 009°58'0 0.0
2018-Feb-20 13:00N 53°28' E 009°58'0 0.0
2018-Feb-20 12:30N 53°28' E 009°58'0 0.0
2018-Feb-20 12:00N 53°28' E 009°58'0 0.0
2018-Feb-20 11:30N 53°28' E 009°58'0 0.0
2018-Feb-20 11:00N 53°28' E 009°58'0 0.0
2018-Feb-20 10:30N 53°28' E 009°58'0 0.0
2018-Feb-20 10:00N 53°28' E 009°58'0 0.0
2018-Feb-20 09:30N 53°28' E 009°58'0 0.0
2018-Feb-20 09:00N 53°28' E 009°58'0 0.0
2018-Feb-20 08:30N 53°28' E 009°58'0 0.0
2018-Feb-20 08:00N 53°28' E 009°58'0 0.0
2018-Feb-20 07:30N 53°28' E 009°58'0 0.0
2018-Feb-20 07:00N 53°28' E 009°58'0 0.0
2018-Feb-20 06:30N 53°28' E 009°58'0 0.0
2018-Feb-20 06:00N 53°28' E 009°58'0 0.0
2018-Feb-20 05:30N 53°28' E 009°58'0 0.0
2018-Feb-20 05:00N 53°28' E 009°58'0 0.0
2018-Feb-20 04:30N 53°28' E 009°58'0 0.7
2018-Feb-20 04:00N 53°29' E 009°58'2 4.3
2018-Feb-20 03:31N 53°31' E 009°56'4 7.0
2018-Feb-20 03:01N 53°33' E 009°52'612.7
2018-Feb-20 02:30N 53°34' E 009°41'713.2
2018-Feb-20 02:00N 53°38' E 009°32'713.2
2018-Feb-20 01:30N 53°44' E 009°27'713.3
2018-Feb-20 01:00N 53°49' E 009°21'713.3
2018-Feb-20 00:31N 53°53' E 009°12'510.7
2018-Feb-20 00:00N 53°52' E 009°03'611.2
2018-Feb-19 23:30N 53°50' E 008°53'510.3
2018-Feb-19 23:00N 53°51' E 008°45'5 9.9
2018-Feb-19 22:30N 53°55' E 008°40'510.1
2018-Feb-19 21:59N 53°58' E 008°32'611.3
2018-Feb-19 21:29N 53°59' E 008°23'110 9.9
2018-Feb-19 10:25N 53°33' E 005°22'5412.3
2018-Feb-19 06:05N 52°55' E 004°19'113.2
2018-Feb-19 06:00N 52°54' E 004°18'1112.8
2018-Feb-19 05:08N 52°45' E 004°08'212.5
2018-Feb-19 04:57N 52°43' E 004°05'612.6
2018-Feb-19 04:27N 52°39' E 003°58'612.6
2018-Feb-19 04:00N 52°35' E 003°51'712.4
2018-Feb-19 03:28N 52°30' E 003°43'712.2
2018-Feb-19 02:53N 52°25' E 003°35'511.7
2018-Feb-19 02:29N 52°22' E 003°29'612.1
2018-Feb-19 01:57N 52°18' E 003°21'510.9
2018-Feb-19 01:29N 52°14' E 003°15'31 9.8
2018-Feb-18 22:17N 51°58' E 002°31'3 9.1
2018-Feb-18 21:59N 51°57' E 002°27'13 9.4
2018-Feb-18 20:38N 51°52' E 002°08'1 9.8
2018-Feb-18 20:30N 51°52' E 002°06'510.0
2018-Feb-18 20:01N 51°50' E 001°59'510.4
2018-Feb-18 19:31N 51°48' E 001°51'510.8
2018-Feb-18 19:00N 51°49' E 001°42'611.2
2018-Feb-18 18:30N 51°49' E 001°33'612.1
2018-Feb-18 18:00N 51°45' E 001°26'612.3
2018-Feb-18 17:30N 51°41' E 001°18'713.0
2018-Feb-18 17:00N 51°36' E 001°12'713.2
2018-Feb-18 16:30N 51°32' E 001°03'613.0
2018-Feb-18 16:00N 51°29' E 000°54'611.5
2018-Feb-18 15:30N 51°27' E 000°45'3 6.7
2018-Feb-18 15:01N 51°24' E 000°44'2 3.1
2018-Feb-18 14:23N 51°22' E 000°46'0 0.0
2018-Feb-18 13:59N 51°22' E 000°46'0 0.0
2018-Feb-18 13:29N 51°22' E 000°46'0 0.0
2018-Feb-18 12:50N 51°22' E 000°46'0 0.0
2018-Feb-18 12:29N 51°22' E 000°46'0 0.0
2018-Feb-18 11:56N 51°22' E 000°46'0 0.0
2018-Feb-18 04:17N 51°22' E 000°46'0 0.0
2018-Feb-18 03:53N 51°22' E 000°46'0 0.0
2018-Feb-18 03:11N 51°22' E 000°46'0 0.0
2018-Feb-18 02:56N 51°22' E 000°46'0 0.0
2018-Feb-18 02:26N 51°22' E 000°46'0 0.0
2018-Feb-18 01:53N 51°22' E 000°46'0 0.0
2018-Feb-18 01:29N 51°22' E 000°46'0 0.0
2018-Feb-18 00:59N 51°22' E 000°46'0 0.0
2018-Feb-18 00:20N 51°22' E 000°46'0 0.0
2018-Feb-17 17:08N 51°22' E 000°46'0 0.0
2018-Feb-17 16:59N 51°22' E 000°46'0 0.0
2018-Feb-17 16:02N 51°22' E 000°46'0 0.0
2018-Feb-17 15:59N 51°22' E 000°46'0 0.0
2018-Feb-17 14:11N 51°22' E 000°46'0 0.0
2018-Feb-17 13:49N 51°22' E 000°46'1 1.7
2018-Feb-17 13:26N 51°23' E 000°46'2 5.0
2018-Feb-17 12:59N 51°24' E 000°43'2 4.0
2018-Feb-17 12:30N 51°26' E 000°44'4 8.2
2018-Feb-17 12:00N 51°28' E 000°50'5 9.7
2018-Feb-17 11:30N 51°30' E 000°57'5 9.3
2018-Feb-17 11:00N 51°32' E 001°04'713.7
2018-Feb-17 10:30N 51°36' E 001°12'713.8
2018-Feb-17 10:00N 51°41' E 001°20'713.9
2018-Feb-17 09:30N 51°46' E 001°28'713.9
2018-Feb-17 09:00N 51°50' E 001°37'713.3
2018-Feb-17 08:30N 51°55' E 001°45'612.6
2018-Feb-17 08:00N 51°59' E 001°53'612.6
2018-Feb-17 07:30N 52°02' E 002°02'3410.7
2018-Feb-17 04:18N 52°18' E 002°51'410.0
2018-Feb-17 03:55N 52°21' E 002°56'5 9.7
2018-Feb-17 03:25N 52°23' E 003°03'410.0
2018-Feb-17 03:00N 52°26' E 003°08'510.1
2018-Feb-17 02:28N 52°29' E 003°15'610.4
2018-Feb-17 01:55N 52°33' E 003°22'510.8
2018-Feb-17 01:29N 52°36' E 003°27'811.5
2018-Feb-17 00:46N 52°43' E 003°36'311.9
2018-Feb-17 00:30N 52°45' E 003°39'612.1
2018-Feb-16 23:59N 52°50' E 003°46'612.2
2018-Feb-16 23:30N 52°54' E 003°52'612.2
2018-Feb-16 23:00N 52°59' E 003°60'612.1
2018-Feb-16 22:30N 53°03' E 004°07'611.8
2018-Feb-16 22:00N 53°06' E 004°14'611.6
2018-Feb-16 21:30N 53°10' E 004°22'136 9.0
2018-Feb-16 06:22N 54°01' E 007°54'3 9.0
2018-Feb-16 06:00N 54°01' E 007°59'5 9.5
2018-Feb-16 05:30N 54°01' E 008°07'5 9.3
2018-Feb-16 05:00N 54°00' E 008°15'510.1
2018-Feb-16 04:30N 53°59' E 008°24'713.1
2018-Feb-16 04:00N 53°58' E 008°35'613.1
2018-Feb-16 03:30N 53°53' E 008°42'611.3
2018-Feb-16 03:00N 53°50' E 008°51'511.0
2018-Feb-16 02:30N 53°51' E 008°60'5 9.6
2018-Feb-16 02:00N 53°53' E 009°07'4 7.5
2018-Feb-16 01:30N 53°53' E 009°14'4 8.4
2018-Feb-16 01:00N 53°51' E 009°20'4 8.3
2018-Feb-16 00:30N 53°47' E 009°23'4 7.4
2018-Feb-16 00:00N 53°44' E 009°27'4 7.5
2018-Feb-15 23:30N 53°41' E 009°30'4 7.5
2018-Feb-15 23:00N 53°37' E 009°33'4 8.0
2018-Feb-15 22:31N 53°35' E 009°38'5 9.9
2018-Feb-15 22:00N 53°34' E 009°46'510.2
2018-Feb-15 21:30N 53°33' E 009°54'4 7.5
2018-Feb-15 21:00N 53°29' E 009°57'1 1.8
2018-Feb-15 20:29N 53°28' E 009°58'0 0.0
2018-Feb-15 19:59N 53°28' E 009°58'0 0.0
2018-Feb-15 19:29N 53°28' E 009°58'0 0.0
2018-Feb-15 18:59N 53°28' E 009°58'0 0.0
2018-Feb-15 18:29N 53°28' E 009°58'0 0.0
2018-Feb-15 17:59N 53°28' E 009°58'0 0.0
2018-Feb-15 17:29N 53°28' E 009°58'0 0.0
2018-Feb-15 16:59N 53°28' E 009°58'0 0.0
2018-Feb-15 16:29N 53°28' E 009°58'0 0.0
2018-Feb-15 15:59N 53°28' E 009°58'0 0.0
2018-Feb-15 15:29N 53°28' E 009°58'0 0.0
2018-Feb-15 14:59N 53°28' E 009°58'0 0.0
2018-Feb-15 14:29N 53°28' E 009°58'0 0.0
2018-Feb-15 13:59N 53°28' E 009°58'0 0.0
2018-Feb-15 13:29N 53°28' E 009°58'0 0.0
2018-Feb-15 12:59N 53°28' E 009°58'0 0.0
2018-Feb-15 12:29N 53°28' E 009°58'0 0.1
2018-Feb-15 11:59N 53°28' E 009°58'0 0.0
2018-Feb-15 11:26N 53°28' E 009°58'0 0.0
2018-Feb-15 10:59N 53°28' E 009°58'0 0.0
2018-Feb-15 10:29N 53°28' E 009°58'0 0.0
2018-Feb-15 09:59N 53°28' E 009°58'0 0.0
2018-Feb-15 09:29N 53°28' E 009°58'0 0.0
2018-Feb-15 08:59N 53°28' E 009°58'0 0.0
2018-Feb-15 08:29N 53°28' E 009°58'0 0.0
2018-Feb-15 07:59N 53°28' E 009°58'0 0.0
2018-Feb-15 07:29N 53°28' E 009°58'0 0.0
2018-Feb-15 06:59N 53°28' E 009°58'0 0.0
2018-Feb-15 06:29N 53°28' E 009°58'0 0.0
2018-Feb-15 05:59N 53°28' E 009°58'0 0.0
2018-Feb-15 05:29N 53°28' E 009°58'0 0.0
2018-Feb-15 04:59N 53°28' E 009°58'0 0.0
2018-Feb-15 04:29N 53°28' E 009°58'0 0.0
2018-Feb-15 03:59N 53°28' E 009°58'0 0.0
2018-Feb-15 03:29N 53°28' E 009°58'0 0.0
2018-Feb-15 02:59N 53°28' E 009°58'0 0.5
2018-Feb-15 02:31N 53°29' E 009°58'3 5.2
2018-Feb-15 02:01N 53°31' E 009°56'4 7.8
2018-Feb-15 01:30N 53°33' E 009°51'612.7
2018-Feb-15 01:01N 53°34' E 009°40'612.6
2018-Feb-15 00:31N 53°38' E 009°32'612.9
2018-Feb-15 00:00N 53°44' E 009°27'611.9
2018-Feb-14 23:30N 53°49' E 009°22'510.2
2018-Feb-14 23:00N 53°52' E 009°15'510.6
2018-Feb-14 22:30N 53°53' E 009°07'5 9.7
2018-Feb-14 22:00N 53°51' E 008°59'510.0
2018-Feb-14 21:30N 53°50' E 008°50'5 9.9
2018-Feb-14 21:01N 53°52' E 008°43'5 9.5
2018-Feb-14 20:30N 53°57' E 008°39'5 9.8
2018-Feb-14 20:01N 53°58' E 008°31'5 9.2
2018-Feb-14 19:29N 53°59' E 008°23'6 9.8
2018-Feb-14 18:55N 53°60' E 008°13'137 8.8
2018-Feb-14 03:21N 53°14' E 004°36'1413.1
2018-Feb-14 02:17N 53°02' E 004°24'612.1
2018-Feb-14 01:50N 52°57' E 004°20'1511.6
2018-Feb-14 00:32N 52°44' E 004°07'111.0
2018-Feb-14 00:29N 52°43' E 004°06'2810.3
2018-Feb-13 21:43N 52°24' E 003°33'2 9.6
2018-Feb-13 21:29N 52°22' E 003°30'5 9.5
2018-Feb-13 20:59N 52°19' E 003°24'5 9.3
2018-Feb-13 20:28N 52°15' E 003°19'4 9.1
2018-Feb-13 19:59N 52°12' E 003°14'5 9.1
2018-Feb-13 19:29N 52°09' E 003°08'4 9.0
2018-Feb-13 19:00N 52°07' E 003°03'5 9.0
2018-Feb-13 18:29N 52°05' E 002°56'4 9.2
2018-Feb-13 18:00N 52°03' E 002°49'27 9.8
2018-Feb-13 15:15N 51°53' E 002°08'310.9
2018-Feb-13 15:00N 51°52' E 002°04'510.8
2018-Feb-13 14:30N 51°50' E 001°57'5 9.7
2018-Feb-13 14:00N 51°49' E 001°49'4 8.4
2018-Feb-13 13:30N 51°49' E 001°42'510.6
2018-Feb-13 13:00N 51°49' E 001°34'510.8
2018-Feb-13 12:30N 51°45' E 001°27'612.3
2018-Feb-13 12:00N 51°41' E 001°20'611.9
2018-Feb-13 11:30N 51°37' E 001°13'611.0
2018-Feb-13 11:00N 51°33' E 001°06'510.3
2018-Feb-13 10:30N 51°31' E 000°59'510.0
2018-Feb-13 10:00N 51°29' E 000°52'5 9.6
2018-Feb-13 09:30N 51°27' E 000°45'3 6.0
2018-Feb-13 09:00N 51°24' E 000°44'2 0.1
2018-Feb-12 17:10N 51°23' E 000°46'0 0.0
2018-Feb-12 16:52N 51°23' E 000°46'0 0.0
2018-Feb-12 10:02N 51°23' E 000°46'0 0.2
2018-Feb-12 10:00N 51°23' E 000°46'2 4.7
2018-Feb-12 09:31N 51°25' E 000°43'2 4.7
2018-Feb-12 09:00N 51°27' E 000°45'5 9.7
2018-Feb-12 08:30N 51°29' E 000°52'4 8.9
2018-Feb-12 08:00N 51°31' E 000°59'1 1.1
2018-Feb-12 07:26N 51°31' E 000°59'0 0.0
2018-Feb-12 06:59N 51°31' E 000°59'0 0.0
2018-Feb-12 06:29N 51°31' E 000°59'0 0.0
2018-Feb-12 05:59N 51°31' E 000°59'0 0.1
2018-Feb-12 05:26N 51°31' E 000°60'0 0.1
2018-Feb-12 04:59N 51°31' E 000°60'0 0.0
2018-Feb-12 04:23N 51°31' E 000°60'0 0.0
2018-Feb-12 03:56N 51°31' E 000°60'0 0.0
2018-Feb-12 03:23N 51°31' E 000°60'0 0.0
2018-Feb-12 02:59N 51°31' E 000°60'0 0.0
2018-Feb-12 02:29N 51°31' E 000°60'0 0.0
2018-Feb-12 01:59N 51°31' E 000°60'0 0.0
2018-Feb-12 01:29N 51°31' E 000°60'0 0.0
2018-Feb-12 00:59N 51°31' E 000°60'0 0.0
2018-Feb-12 00:29N 51°31' E 000°60'0 0.0
2018-Feb-11 23:59N 51°31' E 000°60'0 0.0
2018-Feb-11 23:26N 51°31' E 000°60'0 0.0
2018-Feb-11 22:53N 51°31' E 000°60'0 0.0
2018-Feb-11 22:26N 51°31' E 000°60'0 0.0
2018-Feb-11 21:56N 51°31' E 000°60'0 0.0
2018-Feb-11 21:29N 51°31' E 000°60'0 0.0
2018-Feb-11 20:56N 51°31' E 000°60'0 0.1
2018-Feb-11 20:20N 51°31' E 000°60'0 0.1
2018-Feb-11 19:56N 51°31' E 000°59'0 0.0
2018-Feb-11 19:29N 51°31' E 000°59'0 0.0
2018-Feb-11 18:59N 51°31' E 000°59'0 0.0
2018-Feb-11 18:29N 51°31' E 000°59'0 0.1
2018-Feb-11 17:53N 51°31' E 000°60'0 0.0
2018-Feb-11 17:29N 51°31' E 000°60'0 0.1
2018-Feb-11 16:56N 51°31' E 000°60'0 0.1
2018-Feb-11 16:26N 51°31' E 000°60'0 0.1
2018-Feb-11 15:59N 51°31' E 000°60'0 0.0
2018-Feb-11 15:29N 51°31' E 000°60'0 0.0
2018-Feb-11 14:59N 51°31' E 000°60'0 0.0
2018-Feb-11 14:29N 51°31' E 000°60'0 0.0
2018-Feb-11 13:59N 51°31' E 000°60'0 0.0
2018-Feb-11 13:29N 51°31' E 000°60'0 0.0
2018-Feb-11 12:59N 51°31' E 000°60'0 0.0
2018-Feb-11 12:29N 51°31' E 000°60'0 0.0
2018-Feb-11 11:53N 51°31' E 000°60'0 0.0
2018-Feb-11 11:29N 51°31' E 000°60'0 0.0
2018-Feb-11 10:59N 51°31' E 000°60'0 0.0
2018-Feb-11 10:26N 51°31' E 000°60'0 0.0
2018-Feb-11 09:56N 51°31' E 000°60'0 0.0
2018-Feb-11 09:29N 51°31' E 000°60'0 0.0
2018-Feb-11 08:59N 51°31' E 000°60'0 0.1
2018-Feb-11 08:29N 51°31' E 000°60'0 0.1
2018-Feb-11 07:56N 51°31' E 000°59'0 0.0
2018-Feb-11 07:29N 51°31' E 000°59'0 0.0
2018-Feb-11 06:59N 51°31' E 000°59'0 0.0
2018-Feb-11 06:29N 51°31' E 000°59'0 0.0
2018-Feb-11 05:56N 51°31' E 000°59'0 0.2
2018-Feb-11 05:26N 51°31' E 000°60'0 0.1
2018-Feb-11 04:53N 51°31' E 000°60'0 0.0
2018-Feb-11 04:29N 51°31' E 000°60'0 0.0
2018-Feb-11 03:59N 51°31' E 000°60'0 0.0
2018-Feb-11 03:20N 51°31' E 000°60'0 0.0
2018-Feb-11 02:59N 51°31' E 000°60'0 0.1
2018-Feb-11 02:29N 51°31' E 000°60'0 0.0
2018-Feb-11 01:56N 51°31' E 000°60'0 0.0
2018-Feb-11 01:29N 51°31' E 000°60'0 0.0
2018-Feb-11 00:59N 51°31' E 000°60'0 0.0
2018-Feb-11 00:29N 51°31' E 000°60'0 0.0
2018-Feb-10 23:56N 51°31' E 000°60'0 0.0
2018-Feb-10 22:23N 51°31' E 000°60'0 0.0
2018-Feb-10 21:29N 51°31' E 000°60'0 0.0
2018-Feb-10 20:53N 51°31' E 000°60'0 0.0
2018-Feb-10 20:29N 51°31' E 000°60'0 0.0
2018-Feb-10 19:59N 51°31' E 000°60'0 0.1
2018-Feb-10 19:29N 51°31' E 000°60'0 0.0
2018-Feb-10 18:50N 51°31' E 000°60'0 0.0
2018-Feb-10 18:29N 51°31' E 000°60'0 0.0
2018-Feb-10 17:59N 51°31' E 000°60'0 0.0
2018-Feb-10 17:26N 51°31' E 000°60'0 0.0
2018-Feb-10 16:59N 51°31' E 000°60'0 0.0
2018-Feb-10 16:20N 51°31' E 000°60'0 0.0
2018-Feb-10 15:56N 51°31' E 000°60'0 0.0
2018-Feb-10 15:23N 51°31' E 000°60'  

Dump ship's entire track history